x

Santa Monica Basin - 33nm Wsw Of Santa Monica, Ca (46025) Wave Buoy

9:50 - Thu 28th Aug 2014 All times are PDT. -7 hours from GMT.

  • Sig Wave height 6.2ft
  • Swell Direction
  • Peak Period 11s
  • Average Period 7s
  • Wind
    11mph, 13mph gusts
  • Sea Temp 72°f
  • Air Temp 68°f
  • Sea Pressure 1012.2mb
  • Santa Monica Basin - 33nm Wsw Of Santa Monica, Ca
  • Santa Monica Basin - 33nm Wsw Of Santa Monica, Ca

More Historic Weather Station data

Upgrade to MSW Pro to gain access to the past 30 days of data for over 8000 Wavebouys and Weather Stations around the globe.

Join Pro

Comparision Forecast

View Surf forecast
   
jeu. 08/28 9:50 6ft 11s 7s 11 13 mph 1012.2mb 72f 68f
8:50 6.5ft 11s 7s 13 16 mph 1012mb 72f 69f
7:50 7ft 12s 7s 7 9 mph 1011.8mb 72f 69f
6:50 6.5ft 11s 7s 9 11 mph 1011.8mb 72f 69f
5:50 5.5ft 12s 7s 11 13 mph 1012.2mb 72f 69f
4:50 6ft 12s 7s 13 18 mph 1012.6mb 72f 69f
3:50 6ft 11s 8s 13 18 mph 1013.2mb 72f 70f
2:50 6ft 12s 8s 18 20 mph 1013.6mb 72f 71f
1:50 5ft 12s 9s 13 16 mph 1014.3mb 72f 70f
12:50 4.5ft 12s 8s 9 11 mph 1014.7mb 72f 71f
11:50 5ft 12s 8s 9 11 mph 1015.4mb 72f 70f
10:50 5ft 12s 8s 9 11 mph 1015.7mb 72f 69f
9:50 5ft 12s 7s 9
mph
1015.8mb 71f 69f
8:50 5ft 12s 7s 9 11 mph 1015.6mb 71f 69f
7:50 5ft 12s 8s 7 9 mph 1015.5mb 71f 70f
6:50 5ft 12s 8s 7
mph
1015.4mb 71f 69f
5:50 5ft 12s 8s 7 9 mph 1015.2mb 71f 70f
4:50 4.5ft 11s 8s 7 9 mph 1015.2mb 71f 70f
3:50 5ft 12s 9s 7 9 mph 1015.4mb 71f 69f
2:50 4.5ft 13s 8s 9 11 mph 1015.7mb 71f 69f
1:50 5ft 13s 8s 11 13 mph 1015.7mb 71f 69f
12:50 4.5ft 13s 8s 16 18 mph 1015.8mb 71f 70f
mer. 08/27 11:50 5ft 13s 8s 11 13 mph 1015.8mb 71f 69f
10:50 5ft 13s 8s 11 13 mph 1015.9mb 72f 70f
9:50 5ft 13s 8s 11 13 mph 1016mb 72f 70f
8:50 6.5ft 13s 10s 7 9 mph 1015.8mb 72f 70f
7:50 6ft 14s 10s 9 11 mph 1015.2mb 72f 71f
6:50 5.5ft 14s 10s 11
mph
1015.1mb 72f 72f
5:50 6.5ft 14s 10s 11 13 mph 1015.2mb 73f 72f
4:50 5.5ft 14s 10s 11 13 mph 1015.2mb 73f 71f
3:50 6ft 14s 11s 11 13 mph 1015.6mb 73f 71f
2:50 7ft 14s 11s 9 11 mph 1016.1mb 73f 71f
1:50 6ft 14s 11s 9 11 mph 1016.7mb 73f 71f
12:50 6.5ft 13s 11s 7 9 mph 1016.9mb 73f 71f
11:50 6ft 14s 10s 4 7 mph 1017mb 72f 70f
10:50 7ft 14s 11s 4 7 mph 1017.2mb 72f 69f
9:50 6.5ft 14s 10s 4 9 mph 1017mb 71f 69f
8:50 7ft 15s 11s 7 9 mph 1016.5mb 71f 69f
7:50 7ft 15s 11s 7 9 mph 1016.4mb 71f 68f
6:50 6.5ft 15s 10s 7
mph
1016.4mb 71f 68f
5:50 7ft 15s 11s 4 7 mph 1016mb 71f 69f
4:50 6.5ft 16s 10s 2 4 mph 1015.6mb 71f 69f
3:50 6.5ft 15s 11s 4 7 mph 1015.3mb 71f 69f
2:50 6ft 16s 9s 9 11 mph 1015mb 71f 68f
1:50 6.5ft 16s 9s 11 16 mph 1014.8mb 71f 68f
12:50 6.5ft 16s 9s 13 16 mph 1014.7mb 71f 68f
mar. 08/26 11:50 6ft 15s 8s 11 13 mph 1014.8mb 71f 68f
10:50 6ft 16s 9s 13 18 mph 1014.5mb 71f 68f
9:50 6ft 15s 8s 11 16 mph 1014.6mb 71f 67f
8:50 5.5ft 16s 9s 9 11 mph 1014.2mb 71f 68f
7:50 5.5ft 16s 9s 11 13 mph 1013.5mb 71f 68f
6:50 5ft 16s 8s 11 13 mph 1013.4mb 72f 68f
5:50 5ft 15s 9s 11 16 mph 1013.5mb 72f 68f
4:50 4.5ft 17s 9s 13 16 mph 1013.8mb 72f 68f
3:50 3.5ft 13s 8s 11 13 mph 1014.2mb 72f 68f
2:50 3.5ft 16s 9s 11 16 mph 1014.6mb 72f 67f
1:50 3.5ft 14s 9s 9 11 mph 1015.1mb 72f 67f
12:50 3.5ft 13s 9s 7 9 mph 1015.4mb 72f 67f
11:50 3.5ft 14s 9s 4 7 mph 1015.4mb 71f 66f
10:50 4ft 13s 9s 9 11 mph 1015.5mb 71f 66f
9:50 4ft 13s 8s 9
mph
1015.3mb 71f 66f
8:50 4.5ft 14s 8s 7 9 mph 1014.9mb 71f 66f
7:50 4ft 14s 8s 7 9 mph 1014.8mb 71f 66f
6:50 3.5ft 14s 7s 7 9 mph 1014.2mb 71f 66f
5:50 3.5ft 14s 7s 7 9 mph 1014.1mb 71f 66f
4:50 3.5ft 14s 7s 7 9 mph 1013.8mb 71f 66f
3:50 3.5ft 14s 6s 4 7 mph 1013.9mb 71f 66f
2:50 3.5ft 14s 6s 9 11 mph 1013.9mb 71f 66f
1:50 3.5ft 15s 6s 9 11 mph 1013.8mb 71f 66f
12:50 3.5ft 15s 6s 11 13 mph 1013.9mb 71f 67f
lun. 08/25 11:50 3.5ft 14s 6s 11 13 mph 1013.7mb 71f 67f
10:50 3.5ft 14s 5s 7 9 mph 1013.4mb 71f 67f
9:50 3.5ft 15s 6s 11 13 mph 1013mb 71f 67f
8:50 3.5ft 14s 6s 13 16 mph 1012.5mb 72f 67f
7:50 3.5ft 9s 6s 13 16 mph 1012.1mb 72f 67f
6:50 3.5ft 9s 7s 11 16 mph 1012mb 72f 67f
5:50 3ft 14s 7s 11 13 mph 1012.2mb 72f 66f
4:50 3.5ft 8s 7s 9 11 mph 1012.8mb 72f 67f
3:50 3.5ft 15s 7s 9 11 mph 1012.7mb 72f 66f
2:50 3.5ft 14s 7s 11 13 mph 1013.2mb 72f 66f
1:50 3.5ft 9s 8s 9 13 mph 1013.6mb 72f 65f
12:50 3.5ft 9s 7s 9 11 mph 1013.7mb 72f 65f
11:50 3.5ft 9s 7s 7 9 mph 1013.7mb 72f 65f
10:50 3.5ft 13s 7s 7 9 mph 1013.4mb 72f 65f
9:50 3.5ft 9s 7s 9 11 mph 1013.2mb 72f 65f
8:50 3.5ft 9s 6s 7 11 mph 1012.6mb 71f 65f
7:50 3.5ft 9s 6s 9 11 mph 1012.2mb 71f 65f
6:50 3.5ft 13s 6s 7 11 mph 1011.8mb 71f 66f